Terminal Aerodrome Forecast
Issued by NWS Quad Cities IA IL

Home | Current Version | Previous Version | Text Only | Print | Product List | Glossary On
Versions: 1 2 3 4 5 6 7 8 9 10 11 12 13 14 15 16 17 18 19 20 21 22 23 24 25 26 27 28 29
000
FTUS43 KDVN 220600 AAA
TAFMLI
TAF AMD
KMLI 220651Z 2207/2306 22003KT 6SM BR VCTS BKN060CB
      TEMPO 2207/2210 1SM -TSRA BR OVC035CB
     FM221000 VRB02KT 5SM BR BKN035
     FM221400 23005KT P6SM BKN060
     FM230100 VRB02KT P6SM BKN120=

USA.gov is the U.S. government's official web portal to all federal, state and local government web resources and services.